sensor_id;sensor_type;location;lat;lon;timestamp;P1;durP1;ratioP1;P2;durP2;ratioP2
10701;SDS011;5402;50.004;8.246;2023-05-07T00:02:00;1.47;;;1.33;;
10701;SDS011;5402;50.004;8.246;2023-05-07T00:04:28;1.97;;;1.70;;
10701;SDS011;5402;50.004;8.246;2023-05-07T00:07:00;2.53;;;1.47;;
10701;SDS011;5402;50.004;8.246;2023-05-07T00:09:27;2.73;;;1.77;;
10701;SDS011;5402;50.004;8.246;2023-05-07T00:11:54;1.60;;;1.50;;
10701;SDS011;5402;50.004;8.246;2023-05-07T00:14:20;1.60;;;1.50;;
10701;SDS011;5402;50.004;8.246;2023-05-07T00:16:48;1.80;;;1.67;;
10701;SDS011;5402;50.004;8.246;2023-05-07T00:19:15;1.90;;;1.70;;
10701;SDS011;5402;50.004;8.246;2023-05-07T00:21:42;2.37;;;1.87;;
10701;SDS011;5402;50.004;8.246;2023-05-07T00:24:08;2.77;;;1.80;;
10701;SDS011;5402;50.004;8.246;2023-05-07T00:26:35;2.57;;;1.80;;
10701;SDS011;5402;50.004;8.246;2023-05-07T00:29:02;2.33;;;1.70;;
10701;SDS011;5402;50.004;8.246;2023-05-07T00:31:28;1.93;;;1.73;;
10701;SDS011;5402;50.004;8.246;2023-05-07T00:33:56;2.23;;;1.67;;
10701;SDS011;5402;50.004;8.246;2023-05-07T00:36:24;1.53;;;1.43;;
10701;SDS011;5402;50.004;8.246;2023-05-07T00:38:53;1.70;;;1.60;;
10701;SDS011;5402;50.004;8.246;2023-05-07T00:41:20;1.97;;;1.60;;
10701;SDS011;5402;50.004;8.246;2023-05-07T00:43:47;1.87;;;1.70;;
10701;SDS011;5402;50.004;8.246;2023-05-07T00:46:16;2.63;;;1.83;;
10701;SDS011;5402;50.004;8.246;2023-05-07T00:48:43;4.03;;;1.87;;
10701;SDS011;5402;50.004;8.246;2023-05-07T00:51:12;2.27;;;1.93;;
10701;SDS011;5402;50.004;8.246;2023-05-07T00:53:38;2.50;;;2.00;;
10701;SDS011;5402;50.004;8.246;2023-05-07T00:56:06;3.03;;;1.77;;
10701;SDS011;5402;50.004;8.246;2023-05-07T00:58:33;3.67;;;2.10;;
10701;SDS011;5402;50.004;8.246;2023-05-07T01:00:59;3.83;;;2.00;;
10701;SDS011;5402;50.004;8.246;2023-05-07T01:03:26;4.67;;;2.10;;
10701;SDS011;5402;50.004;8.246;2023-05-07T01:05:53;1.90;;;1.70;;
10701;SDS011;5402;50.004;8.246;2023-05-07T01:08:22;3.50;;;2.30;;
10701;SDS011;5402;50.004;8.246;2023-05-07T01:10:51;2.27;;;1.73;;
10701;SDS011;5402;50.004;8.246;2023-05-07T01:13:19;2.00;;;1.80;;
10701;SDS011;5402;50.004;8.246;2023-05-07T01:15:46;1.97;;;1.83;;
10701;SDS011;5402;50.004;8.246;2023-05-07T01:18:13;2.63;;;1.87;;
10701;SDS011;5402;50.004;8.246;2023-05-07T01:20:41;2.10;;;1.87;;
10701;SDS011;5402;50.004;8.246;2023-05-07T01:23:09;3.07;;;2.60;;
10701;SDS011;5402;50.004;8.246;2023-05-07T01:25:37;2.80;;;2.13;;
10701;SDS011;5402;50.004;8.246;2023-05-07T01:28:03;4.07;;;2.50;;
10701;SDS011;5402;50.004;8.246;2023-05-07T01:30:30;1.90;;;1.73;;
10701;SDS011;5402;50.004;8.246;2023-05-07T01:33:01;2.27;;;1.80;;
10701;SDS011;5402;50.004;8.246;2023-05-07T01:35:34;2.27;;;1.80;;
10701;SDS011;5402;50.004;8.246;2023-05-07T01:38:04;2.77;;;2.00;;
10701;SDS011;5402;50.004;8.246;2023-05-07T01:40:33;3.67;;;1.80;;
10701;SDS011;5402;50.004;8.246;2023-05-07T01:43:00;2.33;;;1.80;;
10701;SDS011;5402;50.004;8.246;2023-05-07T01:45:28;3.20;;;1.90;;
10701;SDS011;5402;50.004;8.246;2023-05-07T01:47:57;2.10;;;1.83;;
10701;SDS011;5402;50.004;8.246;2023-05-07T01:50:24;2.37;;;2.17;;
10701;SDS011;5402;50.004;8.246;2023-05-07T01:52:52;3.70;;;2.17;;
10701;SDS011;5402;50.004;8.246;2023-05-07T01:55:18;2.40;;;1.77;;
10701;SDS011;5402;50.004;8.246;2023-05-07T01:57:47;2.70;;;2.30;;
10701;SDS011;5402;50.004;8.246;2023-05-07T02:00:13;2.47;;;1.83;;
10701;SDS011;5402;50.004;8.246;2023-05-07T02:02:40;2.20;;;2.00;;
10701;SDS011;5402;50.004;8.246;2023-05-07T02:05:07;2.33;;;1.90;;
10701;SDS011;5402;50.004;8.246;2023-05-07T02:07:35;3.27;;;2.03;;
10701;SDS011;5402;50.004;8.246;2023-05-07T02:10:01;2.37;;;2.10;;
10701;SDS011;5402;50.004;8.246;2023-05-07T02:12:29;3.60;;;2.00;;
10701;SDS011;5402;50.004;8.246;2023-05-07T02:14:57;2.20;;;2.00;;
10701;SDS011;5402;50.004;8.246;2023-05-07T02:17:24;2.30;;;2.00;;
10701;SDS011;5402;50.004;8.246;2023-05-07T02:19:50;2.17;;;1.97;;
10701;SDS011;5402;50.004;8.246;2023-05-07T02:22:17;2.50;;;1.97;;
10701;SDS011;5402;50.004;8.246;2023-05-07T02:24:44;2.67;;;1.90;;
10701;SDS011;5402;50.004;8.246;2023-05-07T02:27:11;2.30;;;2.00;;
10701;SDS011;5402;50.004;8.246;2023-05-07T02:29:37;3.00;;;1.80;;
10701;SDS011;5402;50.004;8.246;2023-05-07T02:32:06;3.17;;;1.80;;
10701;SDS011;5402;50.004;8.246;2023-05-07T02:34:32;2.10;;;1.90;;
10701;SDS011;5402;50.004;8.246;2023-05-07T02:36:59;2.37;;;2.00;;
10701;SDS011;5402;50.004;8.246;2023-05-07T02:39:26;3.67;;;1.97;;
10701;SDS011;5402;50.004;8.246;2023-05-07T02:41:53;2.53;;;2.10;;
10701;SDS011;5402;50.004;8.246;2023-05-07T02:44:19;3.03;;;2.07;;
10701;SDS011;5402;50.004;8.246;2023-05-07T02:46:46;3.37;;;2.30;;
10701;SDS011;5402;50.004;8.246;2023-05-07T02:49:14;2.67;;;2.10;;
10701;SDS011;5402;50.004;8.246;2023-05-07T02:51:41;2.50;;;2.00;;
10701;SDS011;5402;50.004;8.246;2023-05-07T02:54:07;4.57;;;2.40;;
10701;SDS011;5402;50.004;8.246;2023-05-07T02:56:34;2.87;;;2.10;;
10701;SDS011;5402;50.004;8.246;2023-05-07T02:59:01;2.67;;;2.17;;
10701;SDS011;5402;50.004;8.246;2023-05-07T03:01:27;3.30;;;2.07;;
10701;SDS011;5402;50.004;8.246;2023-05-07T03:03:54;2.47;;;1.90;;
10701;SDS011;5402;50.004;8.246;2023-05-07T03:06:22;2.63;;;1.90;;
10701;SDS011;5402;50.004;8.246;2023-05-07T03:08:49;2.17;;;1.97;;
10701;SDS011;5402;50.004;8.246;2023-05-07T03:11:16;3.83;;;2.20;;
10701;SDS011;5402;50.004;8.246;2023-05-07T03:13:43;3.83;;;1.90;;
10701;SDS011;5402;50.004;8.246;2023-05-07T03:16:10;2.10;;;1.90;;
10701;SDS011;5402;50.004;8.246;2023-05-07T03:18:36;3.20;;;2.03;;
10701;SDS011;5402;50.004;8.246;2023-05-07T03:21:03;2.50;;;1.93;;
10701;SDS011;5402;50.004;8.246;2023-05-07T03:23:31;2.10;;;1.90;;
10701;SDS011;5402;50.004;8.246;2023-05-07T03:25:58;2.60;;;2.10;;
10701;SDS011;5402;50.004;8.246;2023-05-07T03:28:24;2.83;;;1.90;;
10701;SDS011;5402;50.004;8.246;2023-05-07T03:30:51;3.57;;;2.03;;
10701;SDS011;5402;50.004;8.246;2023-05-07T03:33:18;2.87;;;2.37;;
10701;SDS011;5402;50.004;8.246;2023-05-07T03:35:44;3.40;;;2.30;;
10701;SDS011;5402;50.004;8.246;2023-05-07T03:38:11;3.10;;;2.03;;
10701;SDS011;5402;50.004;8.246;2023-05-07T03:40:39;2.37;;;2.10;;
10701;SDS011;5402;50.004;8.246;2023-05-07T03:43:06;2.93;;;2.20;;
10701;SDS011;5402;50.004;8.246;2023-05-07T03:45:33;2.80;;;2.20;;
10701;SDS011;5402;50.004;8.246;2023-05-07T03:47:59;2.20;;;2.00;;
10701;SDS011;5402;50.004;8.246;2023-05-07T03:50:26;3.70;;;2.20;;
10701;SDS011;5402;50.004;8.246;2023-05-07T03:52:53;2.47;;;2.00;;
10701;SDS011;5402;50.004;8.246;2023-05-07T03:55:19;2.30;;;2.10;;
10701;SDS011;5402;50.004;8.246;2023-05-07T03:57:48;3.37;;;2.00;;
10701;SDS011;5402;50.004;8.246;2023-05-07T04:00:14;2.30;;;1.83;;
10701;SDS011;5402;50.004;8.246;2023-05-07T04:02:41;2.20;;;1.87;;
10701;SDS011;5402;50.004;8.246;2023-05-07T04:05:08;2.50;;;1.97;;
10701;SDS011;5402;50.004;8.246;2023-05-07T04:07:35;2.93;;;2.00;;
10701;SDS011;5402;50.004;8.246;2023-05-07T04:10:01;2.47;;;2.17;;
10701;SDS011;5402;50.004;8.246;2023-05-07T04:12:28;3.13;;;2.00;;
10701;SDS011;5402;50.004;8.246;2023-05-07T04:14:56;2.07;;;1.80;;
10701;SDS011;5402;50.004;8.246;2023-05-07T04:17:23;3.90;;;2.10;;
10701;SDS011;5402;50.004;8.246;2023-05-07T04:19:50;4.20;;;2.37;;
10701;SDS011;5402;50.004;8.246;2023-05-07T04:22:16;3.60;;;2.57;;
10701;SDS011;5402;50.004;8.246;2023-05-07T04:24:43;3.17;;;2.37;;
10701;SDS011;5402;50.004;8.246;2023-05-07T04:27:10;4.40;;;2.40;;
10701;SDS011;5402;50.004;8.246;2023-05-07T04:29:37;3.50;;;2.33;;
10701;SDS011;5402;50.004;8.246;2023-05-07T04:32:08;3.33;;;2.30;;
10701;SDS011;5402;50.004;8.246;2023-05-07T04:34:35;2.63;;;2.43;;
10701;SDS011;5402;50.004;8.246;2023-05-07T04:37:01;3.37;;;2.40;;
10701;SDS011;5402;50.004;8.246;2023-05-07T04:39:28;2.97;;;2.17;;
10701;SDS011;5402;50.004;8.246;2023-05-07T04:41:55;2.63;;;2.30;;
10701;SDS011;5402;50.004;8.246;2023-05-07T04:44:21;2.83;;;2.50;;
10701;SDS011;5402;50.004;8.246;2023-05-07T04:46:48;3.10;;;2.33;;
10701;SDS011;5402;50.004;8.246;2023-05-07T04:49:16;2.47;;;2.20;;
10701;SDS011;5402;50.004;8.246;2023-05-07T04:51:43;3.37;;;2.50;;
10701;SDS011;5402;50.004;8.246;2023-05-07T04:54:10;5.77;;;2.90;;
10701;SDS011;5402;50.004;8.246;2023-05-07T04:56:36;2.57;;;2.37;;
10701;SDS011;5402;50.004;8.246;2023-05-07T04:59:03;4.50;;;2.80;;
10701;SDS011;5402;50.004;8.246;2023-05-07T05:01:30;4.30;;;2.60;;
10701;SDS011;5402;50.004;8.246;2023-05-07T05:03:57;5.07;;;2.70;;
10701;SDS011;5402;50.004;8.246;2023-05-07T05:06:26;2.93;;;2.40;;
10701;SDS011;5402;50.004;8.246;2023-05-07T05:08:53;4.13;;;2.23;;
10701;SDS011;5402;50.004;8.246;2023-05-07T05:11:19;2.40;;;2.13;;
10701;SDS011;5402;50.004;8.246;2023-05-07T05:13:46;2.97;;;2.40;;
10701;SDS011;5402;50.004;8.246;2023-05-07T05:16:13;3.60;;;2.20;;
10701;SDS011;5402;50.004;8.246;2023-05-07T05:18:40;2.80;;;2.10;;
10701;SDS011;5402;50.004;8.246;2023-05-07T05:21:07;2.57;;;2.00;;
10701;SDS011;5402;50.004;8.246;2023-05-07T05:23:35;2.00;;;1.90;;
10701;SDS011;5402;50.004;8.246;2023-05-07T05:26:02;2.67;;;2.47;;
10701;SDS011;5402;50.004;8.246;2023-05-07T05:28:29;2.33;;;1.70;;
10701;SDS011;5402;50.004;8.246;2023-05-07T05:30:55;1.70;;;1.60;;
10701;SDS011;5402;50.004;8.246;2023-05-07T05:33:22;1.97;;;1.77;;
10701;SDS011;5402;50.004;8.246;2023-05-07T05:35:49;2.10;;;1.90;;
10701;SDS011;5402;50.004;8.246;2023-05-07T05:38:16;3.30;;;2.07;;
10701;SDS011;5402;50.004;8.246;2023-05-07T05:40:44;2.20;;;2.00;;
10701;SDS011;5402;50.004;8.246;2023-05-07T05:43:11;3.37;;;2.10;;
10701;SDS011;5402;50.004;8.246;2023-05-07T05:45:38;2.20;;;1.93;;
10701;SDS011;5402;50.004;8.246;2023-05-07T05:48:05;1.93;;;1.67;;
10701;SDS011;5402;50.004;8.246;2023-05-07T05:50:33;1.90;;;1.70;;
10701;SDS011;5402;50.004;8.246;2023-05-07T05:53:00;1.90;;;1.70;;
10701;SDS011;5402;50.004;8.246;2023-05-07T05:55:27;3.60;;;1.90;;
10701;SDS011;5402;50.004;8.246;2023-05-07T05:57:55;1.70;;;1.60;;
10701;SDS011;5402;50.004;8.246;2023-05-07T06:00:22;2.33;;;1.73;;
10701;SDS011;5402;50.004;8.246;2023-05-07T06:02:49;2.60;;;1.90;;
10701;SDS011;5402;50.004;8.246;2023-05-07T06:05:16;2.23;;;1.70;;
10701;SDS011;5402;50.004;8.246;2023-05-07T06:07:43;2.23;;;1.80;;
10701;SDS011;5402;50.004;8.246;2023-05-07T06:10:09;2.10;;;1.90;;
10701;SDS011;5402;50.004;8.246;2023-05-07T06:12:37;1.90;;;1.70;;
10701;SDS011;5402;50.004;8.246;2023-05-07T06:15:06;3.07;;;1.70;;
10701;SDS011;5402;50.004;8.246;2023-05-07T06:17:33;2.80;;;1.67;;
10701;SDS011;5402;50.004;8.246;2023-05-07T06:20:00;1.97;;;1.83;;
10701;SDS011;5402;50.004;8.246;2023-05-07T06:22:27;2.73;;;1.90;;
10701;SDS011;5402;50.004;8.246;2023-05-07T06:24:53;3.50;;;1.90;;
10701;SDS011;5402;50.004;8.246;2023-05-07T06:27:20;2.50;;;1.77;;
10701;SDS011;5402;50.004;8.246;2023-05-07T06:29:47;2.10;;;1.90;;
10701;SDS011;5402;50.004;8.246;2023-05-07T06:32:16;5.80;;;2.17;;
10701;SDS011;5402;50.004;8.246;2023-05-07T06:34:43;2.40;;;2.10;;
10701;SDS011;5402;50.004;8.246;2023-05-07T06:37:09;2.10;;;1.80;;
10701;SDS011;5402;50.004;8.246;2023-05-07T06:39:36;2.97;;;1.60;;
10701;SDS011;5402;50.004;8.246;2023-05-07T06:42:03;2.20;;;2.00;;
10701;SDS011;5402;50.004;8.246;2023-05-07T06:44:30;2.33;;;2.13;;
10701;SDS011;5402;50.004;8.246;2023-05-07T06:46:57;3.00;;;1.97;;
10701;SDS011;5402;50.004;8.246;2023-05-07T06:49:25;2.72;;;2.15;;
10701;SDS011;5402;50.004;8.246;2023-05-07T06:51:52;2.73;;;2.03;;
10701;SDS011;5402;50.004;8.246;2023-05-07T06:54:19;2.70;;;2.20;;
10701;SDS011;5402;50.004;8.246;2023-05-07T06:56:45;3.13;;;2.10;;
10701;SDS011;5402;50.004;8.246;2023-05-07T06:59:12;2.03;;;1.93;;
10701;SDS011;5402;50.004;8.246;2023-05-07T07:01:39;4.47;;;2.30;;
10701;SDS011;5402;50.004;8.246;2023-05-07T07:04:06;2.40;;;2.20;;
10701;SDS011;5402;50.004;8.246;2023-05-07T07:06:34;2.40;;;2.20;;
10701;SDS011;5402;50.004;8.246;2023-05-07T07:09:01;2.57;;;2.10;;
10701;SDS011;5402;50.004;8.246;2023-05-07T07:11:27;2.30;;;2.10;;
10701;SDS011;5402;50.004;8.246;2023-05-07T07:13:54;2.43;;;2.23;;
10701;SDS011;5402;50.004;8.246;2023-05-07T07:16:21;2.40;;;2.20;;
10701;SDS011;5402;50.004;8.246;2023-05-07T07:18:48;3.67;;;2.30;;
10701;SDS011;5402;50.004;8.246;2023-05-07T07:21:15;3.93;;;2.40;;
10701;SDS011;5402;50.004;8.246;2023-05-07T07:23:43;2.30;;;2.10;;
10701;SDS011;5402;50.004;8.246;2023-05-07T07:26:10;2.60;;;2.40;;
10701;SDS011;5402;50.004;8.246;2023-05-07T07:28:41;2.70;;;2.50;;
10701;SDS011;5402;50.004;8.246;2023-05-07T07:31:08;2.30;;;2.10;;
10701;SDS011;5402;50.004;8.246;2023-05-07T07:33:35;2.40;;;2.20;;
10701;SDS011;5402;50.004;8.246;2023-05-07T07:36:02;2.97;;;2.67;;
10701;SDS011;5402;50.004;8.246;2023-05-07T07:38:31;3.53;;;2.73;;
10701;SDS011;5402;50.004;8.246;2023-05-07T07:40:59;3.37;;;2.60;;
10701;SDS011;5402;50.004;8.246;2023-05-07T07:43:26;3.93;;;2.67;;
10701;SDS011;5402;50.004;8.246;2023-05-07T07:45:52;4.95;;;2.58;;
10701;SDS011;5402;50.004;8.246;2023-05-07T07:48:19;4.33;;;2.60;;
10701;SDS011;5402;50.004;8.246;2023-05-07T07:50:48;2.80;;;2.60;;
10701;SDS011;5402;50.004;8.246;2023-05-07T07:53:15;3.83;;;2.47;;
10701;SDS011;5402;50.004;8.246;2023-05-07T07:55:42;3.53;;;2.90;;
10701;SDS011;5402;50.004;8.246;2023-05-07T07:58:11;3.53;;;2.80;;
10701;SDS011;5402;50.004;8.246;2023-05-07T08:00:37;4.60;;;2.80;;
10701;SDS011;5402;50.004;8.246;2023-05-07T08:03:04;3.10;;;2.80;;
10701;SDS011;5402;50.004;8.246;2023-05-07T08:05:32;3.03;;;2.47;;
10701;SDS011;5402;50.004;8.246;2023-05-07T08:07:58;3.03;;;2.72;;
10701;SDS011;5402;50.004;8.246;2023-05-07T08:10:25;3.10;;;2.80;;
10701;SDS011;5402;50.004;8.246;2023-05-07T08:12:54;3.03;;;2.40;;
10701;SDS011;5402;50.004;8.246;2023-05-07T08:15:22;3.23;;;2.60;;
10701;SDS011;5402;50.004;8.246;2023-05-07T08:17:49;3.13;;;2.50;;
10701;SDS011;5402;50.004;8.246;2023-05-07T08:20:16;3.85;;;2.78;;
10701;SDS011;5402;50.004;8.246;2023-05-07T08:22:43;3.90;;;3.00;;
10701;SDS011;5402;50.004;8.246;2023-05-07T08:25:09;3.37;;;2.53;;
10701;SDS011;5402;50.004;8.246;2023-05-07T08:27:36;3.00;;;2.60;;
10701;SDS011;5402;50.004;8.246;2023-05-07T08:30:03;3.03;;;2.60;;
10701;SDS011;5402;50.004;8.246;2023-05-07T08:32:32;4.47;;;2.83;;
10701;SDS011;5402;50.004;8.246;2023-05-07T08:34:59;4.03;;;2.87;;
10701;SDS011;5402;50.004;8.246;2023-05-07T08:37:26;3.13;;;2.90;;
10701;SDS011;5402;50.004;8.246;2023-05-07T08:39:53;3.03;;;2.60;;
10701;SDS011;5402;50.004;8.246;2023-05-07T08:42:23;2.73;;;2.53;;
10701;SDS011;5402;50.004;8.246;2023-05-07T08:44:51;3.10;;;2.80;;
10701;SDS011;5402;50.004;8.246;2023-05-07T08:47:19;3.22;;;2.58;;
10701;SDS011;5402;50.004;8.246;2023-05-07T08:49:50;3.03;;;2.72;;
10701;SDS011;5402;50.004;8.246;2023-05-07T08:52:17;3.10;;;2.83;;
10701;SDS011;5402;50.004;8.246;2023-05-07T08:54:45;4.20;;;2.70;;
10701;SDS011;5402;50.004;8.246;2023-05-07T08:57:12;3.05;;;2.70;;
10701;SDS011;5402;50.004;8.246;2023-05-07T08:59:39;3.78;;;3.00;;
10701;SDS011;5402;50.004;8.246;2023-05-07T09:02:06;3.30;;;3.00;;
10701;SDS011;5402;50.004;8.246;2023-05-07T09:04:35;3.90;;;2.83;;
10701;SDS011;5402;50.004;8.246;2023-05-07T09:07:04;4.10;;;2.90;;
10701;SDS011;5402;50.004;8.246;2023-05-07T09:09:31;4.10;;;3.05;;
10701;SDS011;5402;50.004;8.246;2023-05-07T09:11:59;3.67;;;2.88;;
10701;SDS011;5402;50.004;8.246;2023-05-07T09:14:27;4.03;;;3.00;;
10701;SDS011;5402;50.004;8.246;2023-05-07T09:16:53;3.40;;;3.10;;
10701;SDS011;5402;50.004;8.246;2023-05-07T09:19:22;3.42;;;3.13;;
10701;SDS011;5402;50.004;8.246;2023-05-07T09:21:49;2.83;;;2.63;;
10701;SDS011;5402;50.004;8.246;2023-05-07T09:24:17;3.15;;;2.80;;
10701;SDS011;5402;50.004;8.246;2023-05-07T09:26:44;3.38;;;3.08;;
10701;SDS011;5402;50.004;8.246;2023-05-07T09:29:11;3.70;;;3.25;;
10701;SDS011;5402;50.004;8.246;2023-05-07T09:31:37;3.60;;;3.30;;
10701;SDS011;5402;50.004;8.246;2023-05-07T09:34:05;3.63;;;3.00;;
10701;SDS011;5402;50.004;8.246;2023-05-07T09:36:33;2.92;;;2.72;;
10701;SDS011;5402;50.004;8.246;2023-05-07T09:38:59;3.15;;;2.85;;
10701;SDS011;5402;50.004;8.246;2023-05-07T09:41:28;3.38;;;3.08;;
10701;SDS011;5402;50.004;8.246;2023-05-07T09:43:56;3.70;;;3.40;;
10701;SDS011;5402;50.004;8.246;2023-05-07T09:46:25;3.60;;;3.20;;
10701;SDS011;5402;50.004;8.246;2023-05-07T09:48:56;4.72;;;3.17;;
10701;SDS011;5402;50.004;8.246;2023-05-07T09:51:24;4.15;;;3.67;;
10701;SDS011;5402;50.004;8.246;2023-05-07T09:53:56;4.35;;;3.40;;
10701;SDS011;5402;50.004;8.246;2023-05-07T09:56:25;3.78;;;3.00;;
10701;SDS011;5402;50.004;8.246;2023-05-07T09:58:55;3.10;;;2.80;;
10701;SDS011;5402;50.004;8.246;2023-05-07T10:01:23;3.40;;;3.10;;
10701;SDS011;5402;50.004;8.246;2023-05-07T10:03:51;3.67;;;2.92;;
10701;SDS011;5402;50.004;8.246;2023-05-07T10:06:19;3.97;;;3.38;;
10701;SDS011;5402;50.004;8.246;2023-05-07T10:08:46;3.70;;;3.20;;
10701;SDS011;5402;50.004;8.246;2023-05-07T10:11:15;3.83;;;3.42;;
10701;SDS011;5402;50.004;8.246;2023-05-07T10:13:43;3.30;;;3.00;;
10701;SDS011;5402;50.004;8.246;2023-05-07T10:16:12;3.88;;;3.45;;
10701;SDS011;5402;50.004;8.246;2023-05-07T10:18:40;3.25;;;2.95;;
10701;SDS011;5402;50.004;8.246;2023-05-07T10:21:07;3.47;;;3.17;;
10701;SDS011;5402;50.004;8.246;2023-05-07T10:23:37;4.60;;;3.10;;
10701;SDS011;5402;50.004;8.246;2023-05-07T10:26:06;4.47;;;2.72;;
10701;SDS011;5402;50.004;8.246;2023-05-07T10:28:34;3.60;;;2.88;;
10701;SDS011;5402;50.004;8.246;2023-05-07T10:31:10;3.97;;;3.20;;
10701;SDS011;5402;50.004;8.246;2023-05-07T10:33:52;3.30;;;3.00;;
10701;SDS011;5402;50.004;8.246;2023-05-07T10:36:21;4.32;;;3.50;;
10701;SDS011;5402;50.004;8.246;2023-05-07T10:38:48;3.35;;;3.08;;
10701;SDS011;5402;50.004;8.246;2023-05-07T10:41:16;5.00;;;3.40;;
10701;SDS011;5402;50.004;8.246;2023-05-07T10:43:44;3.28;;;2.97;;
10701;SDS011;5402;50.004;8.246;2023-05-07T10:46:14;3.00;;;2.80;;
10701;SDS011;5402;50.004;8.246;2023-05-07T10:51:33;3.47;;;3.17;;
10701;SDS011;5402;50.004;8.246;2023-05-07T10:54:20;3.53;;;3.22;;
10701;SDS011;5402;50.004;8.246;2023-05-07T10:56:47;2.83;;;2.63;;
10701;SDS011;5402;50.004;8.246;2023-05-07T10:59:34;3.00;;;2.78;;
10701;SDS011;5402;50.004;8.246;2023-05-07T11:02:09;2.88;;;2.67;;
10701;SDS011;5402;50.004;8.246;2023-05-07T11:04:39;3.58;;;3.17;;
10701;SDS011;5402;50.004;8.246;2023-05-07T11:09:55;3.47;;;3.17;;
10701;SDS011;5402;50.004;8.246;2023-05-07T11:15:34;5.50;;;3.40;;
10701;SDS011;5402;50.004;8.246;2023-05-07T11:18:15;3.60;;;3.30;;
10701;SDS011;5402;50.004;8.246;2023-05-07T11:20:44;6.72;;;3.95;;
10701;SDS011;5402;50.004;8.246;2023-05-07T11:26:26;3.88;;;3.17;;
10701;SDS011;5402;50.004;8.246;2023-05-07T11:28:55;3.72;;;3.42;;
10701;SDS011;5402;50.004;8.246;2023-05-07T11:31:22;4.25;;;3.20;;
10701;SDS011;5402;50.004;8.246;2023-05-07T11:33:53;4.25;;;3.40;;
10701;SDS011;5402;50.004;8.246;2023-05-07T11:36:21;4.18;;;3.38;;
10701;SDS011;5402;50.004;8.246;2023-05-07T11:38:49;5.35;;;3.58;;
10701;SDS011;5402;50.004;8.246;2023-05-07T11:41:16;4.57;;;3.92;;
10701;SDS011;5402;50.004;8.246;2023-05-07T11:43:54;4.30;;;3.90;;
10701;SDS011;5402;50.004;8.246;2023-05-07T11:46:22;4.22;;;3.50;;
10701;SDS011;5402;50.004;8.246;2023-05-07T11:48:48;3.95;;;3.40;;
10701;SDS011;5402;50.004;8.246;2023-05-07T11:51:20;6.07;;;4.30;;
10701;SDS011;5402;50.004;8.246;2023-05-07T11:53:48;3.80;;;3.40;;
10701;SDS011;5402;50.004;8.246;2023-05-07T11:56:15;4.03;;;3.63;;
10701;SDS011;5402;50.004;8.246;2023-05-07T11:58:43;3.47;;;3.17;;
10701;SDS011;5402;50.004;8.246;2023-05-07T12:01:12;3.60;;;3.30;;
10701;SDS011;5402;50.004;8.246;2023-05-07T12:03:40;4.25;;;3.10;;
10701;SDS011;5402;50.004;8.246;2023-05-07T12:06:08;3.20;;;2.90;;
10701;SDS011;5402;50.004;8.246;2023-05-07T12:08:37;4.93;;;3.45;;
10701;SDS011;5402;50.004;8.246;2023-05-07T12:11:09;3.33;;;3.03;;
10701;SDS011;5402;50.004;8.246;2023-05-07T12:13:39;3.90;;;3.08;;
10701;SDS011;5402;50.004;8.246;2023-05-07T12:16:07;3.35;;;3.05;;
10701;SDS011;5402;50.004;8.246;2023-05-07T12:18:34;3.38;;;3.08;;
10701;SDS011;5402;50.004;8.246;2023-05-07T12:21:02;4.85;;;3.20;;
10701;SDS011;5402;50.004;8.246;2023-05-07T12:23:31;3.30;;;3.00;;
10701;SDS011;5402;50.004;8.246;2023-05-07T12:25:59;3.67;;;2.63;;
10701;SDS011;5402;50.004;8.246;2023-05-07T12:28:27;4.88;;;2.72;;
10701;SDS011;5402;50.004;8.246;2023-05-07T12:30:53;3.40;;;3.10;;
10701;SDS011;5402;50.004;8.246;2023-05-07T12:33:23;2.88;;;2.67;;
10701;SDS011;5402;50.004;8.246;2023-05-07T12:35:54;4.15;;;3.13;;
10701;SDS011;5402;50.004;8.246;2023-05-07T12:38:21;3.78;;;2.95;;
10701;SDS011;5402;50.004;8.246;2023-05-07T12:40:49;2.83;;;2.63;;
10701;SDS011;5402;50.004;8.246;2023-05-07T12:43:18;3.20;;;2.75;;
10701;SDS011;5402;50.004;8.246;2023-05-07T12:45:46;2.83;;;2.50;;
10701;SDS011;5402;50.004;8.246;2023-05-07T12:48:15;3.72;;;3.00;;
10701;SDS011;5402;50.004;8.246;2023-05-07T12:50:42;3.70;;;3.08;;
10701;SDS011;5402;50.004;8.246;2023-05-07T12:53:09;2.75;;;2.55;;
10701;SDS011;5402;50.004;8.246;2023-05-07T12:55:41;2.83;;;2.50;;
10701;SDS011;5402;50.004;8.246;2023-05-07T12:58:14;3.10;;;2.72;;
10701;SDS011;5402;50.004;8.246;2023-05-07T13:00:44;2.72;;;2.13;;
10701;SDS011;5402;50.004;8.246;2023-05-07T13:03:15;2.05;;;1.90;;
10701;SDS011;5402;50.004;8.246;2023-05-07T13:05:47;2.42;;;1.80;;
10701;SDS011;5402;50.004;8.246;2023-05-07T13:08:26;2.28;;;1.90;;
10701;SDS011;5402;50.004;8.246;2023-05-07T13:10:54;3.17;;;1.88;;
10701;SDS011;5402;50.004;8.246;2023-05-07T13:13:21;1.98;;;1.77;;
10701;SDS011;5402;50.004;8.246;2023-05-07T13:15:49;1.92;;;1.80;;
10701;SDS011;5402;50.004;8.246;2023-05-07T13:18:16;2.00;;;1.90;;
10701;SDS011;5402;50.004;8.246;2023-05-07T13:20:43;2.10;;;1.90;;
10701;SDS011;5402;50.004;8.246;2023-05-07T13:23:10;2.63;;;1.70;;
10701;SDS011;5402;50.004;8.246;2023-05-07T13:25:36;1.73;;;1.63;;
10701;SDS011;5402;50.004;8.246;2023-05-07T13:28:03;2.13;;;1.95;;
10701;SDS011;5402;50.004;8.246;2023-05-07T13:30:30;2.05;;;1.60;;
10701;SDS011;5402;50.004;8.246;2023-05-07T13:32:58;1.83;;;1.65;;
10701;SDS011;5402;50.004;8.246;2023-05-07T13:35:25;2.25;;;2.00;;
10701;SDS011;5402;50.004;8.246;2023-05-07T13:37:52;2.45;;;1.98;;
10701;SDS011;5402;50.004;8.246;2023-05-07T13:40:21;3.95;;;1.70;;
10701;SDS011;5402;50.004;8.246;2023-05-07T13:42:48;2.33;;;1.75;;
10701;SDS011;5402;50.004;8.246;2023-05-07T13:45:15;1.90;;;1.80;;
10701;SDS011;5402;50.004;8.246;2023-05-07T13:47:42;1.90;;;1.70;;
10701;SDS011;5402;50.004;8.246;2023-05-07T13:50:12;4.70;;;2.15;;
10701;SDS011;5402;50.004;8.246;2023-05-07T13:52:40;1.98;;;1.88;;
10701;SDS011;5402;50.004;8.246;2023-05-07T13:55:08;2.00;;;1.80;;
10701;SDS011;5402;50.004;8.246;2023-05-07T13:57:35;1.92;;;1.80;;
10701;SDS011;5402;50.004;8.246;2023-05-07T14:00:02;2.17;;;1.60;;
10701;SDS011;5402;50.004;8.246;2023-05-07T14:02:30;1.90;;;1.70;;
10701;SDS011;5402;50.004;8.246;2023-05-07T14:04:57;1.88;;;1.70;;
10701;SDS011;5402;50.004;8.246;2023-05-07T14:07:25;4.13;;;1.70;;
10701;SDS011;5402;50.004;8.246;2023-05-07T14:09:51;2.75;;;1.65;;
10701;SDS011;5402;50.004;8.246;2023-05-07T14:12:18;1.80;;;1.70;;
10701;SDS011;5402;50.004;8.246;2023-05-07T14:14:45;3.80;;;1.88;;
10701;SDS011;5402;50.004;8.246;2023-05-07T14:17:11;1.95;;;1.40;;
10701;SDS011;5402;50.004;8.246;2023-05-07T14:19:38;1.70;;;1.60;;
10701;SDS011;5402;50.004;8.246;2023-05-07T14:22:05;1.85;;;1.70;;
10701;SDS011;5402;50.004;8.246;2023-05-07T14:24:33;2.42;;;1.95;;
10701;SDS011;5402;50.004;8.246;2023-05-07T14:27:00;2.83;;;1.67;;
10701;SDS011;5402;50.004;8.246;2023-05-07T14:29:27;1.63;;;1.52;;
10701;SDS011;5402;50.004;8.246;2023-05-07T14:31:54;2.40;;;2.20;;
10701;SDS011;5402;50.004;8.246;2023-05-07T14:34:21;2.78;;;1.80;;
10701;SDS011;5402;50.004;8.246;2023-05-07T14:36:48;3.78;;;1.80;;
10701;SDS011;5402;50.004;8.246;2023-05-07T14:39:15;2.10;;;1.88;;
10701;SDS011;5402;50.004;8.246;2023-05-07T14:41:43;2.95;;;1.92;;
10701;SDS011;5402;50.004;8.246;2023-05-07T14:44:13;2.35;;;1.70;;
10701;SDS011;5402;50.004;8.246;2023-05-07T14:46:39;7.93;;;2.03;;
10701;SDS011;5402;50.004;8.246;2023-05-07T14:49:06;1.92;;;1.70;;
10701;SDS011;5402;50.004;8.246;2023-05-07T14:51:41;3.63;;;2.30;;
10701;SDS011;5402;50.004;8.246;2023-05-07T14:54:08;2.58;;;2.38;;
10701;SDS011;5402;50.004;8.246;2023-05-07T14:56:35;2.58;;;2.33;;
10701;SDS011;5402;50.004;8.246;2023-05-07T14:59:03;2.28;;;2.08;;
10701;SDS011;5402;50.004;8.246;2023-05-07T15:01:30;4.35;;;2.85;;
10701;SDS011;5402;50.004;8.246;2023-05-07T15:03:56;5.93;;;3.63;;
10701;SDS011;5402;50.004;8.246;2023-05-07T15:06:23;3.42;;;3.13;;
10701;SDS011;5402;50.004;8.246;2023-05-07T15:08:50;3.08;;;2.78;;
10701;SDS011;5402;50.004;8.246;2023-05-07T15:11:17;4.88;;;3.20;;
10701;SDS011;5402;50.004;8.246;2023-05-07T15:13:43;2.75;;;2.55;;
10701;SDS011;5402;50.004;8.246;2023-05-07T15:16:12;4.50;;;3.03;;